sensor_id;sensor_type;location;lat;lon;timestamp;temperature;humidity
52765;DHT22;38650;44.536;18.664;2023-03-14T00:00:35;10.40;66.30
52765;DHT22;38650;44.536;18.664;2023-03-14T00:03:01;10.40;65.80
52765;DHT22;38650;44.536;18.664;2023-03-14T00:05:27;10.50;65.80
52765;DHT22;38650;44.536;18.664;2023-03-14T00:07:52;10.50;66.50
52765;DHT22;38650;44.536;18.664;2023-03-14T00:10:19;10.50;67.10
52765;DHT22;38650;44.536;18.664;2023-03-14T00:12:44;10.40;66.20
52765;DHT22;38650;44.536;18.664;2023-03-14T00:15:11;10.40;66.40
52765;DHT22;38650;44.536;18.664;2023-03-14T00:17:37;10.40;66.10
52765;DHT22;38650;44.536;18.664;2023-03-14T00:20:05;10.40;66.00
52765;DHT22;38650;44.536;18.664;2023-03-14T00:22:38;10.40;65.90
52765;DHT22;38650;44.536;18.664;2023-03-14T00:25:05;10.30;66.50
52765;DHT22;38650;44.536;18.664;2023-03-14T00:27:32;10.30;66.40
52765;DHT22;38650;44.536;18.664;2023-03-14T00:29:58;10.20;66.30
52765;DHT22;38650;44.536;18.664;2023-03-14T00:32:23;10.30;66.20
52765;DHT22;38650;44.536;18.664;2023-03-14T00:34:49;10.30;66.10
52765;DHT22;38650;44.536;18.664;2023-03-14T00:37:15;10.30;66.20
52765;DHT22;38650;44.536;18.664;2023-03-14T00:39:41;10.30;66.90
52765;DHT22;38650;44.536;18.664;2023-03-14T00:42:07;10.30;66.20
52765;DHT22;38650;44.536;18.664;2023-03-14T00:44:32;10.30;66.30
52765;DHT22;38650;44.536;18.664;2023-03-14T00:46:58;10.30;65.90
52765;DHT22;38650;44.536;18.664;2023-03-14T00:49:24;10.30;65.90
52765;DHT22;38650;44.536;18.664;2023-03-14T00:51:50;10.30;66.80
52765;DHT22;38650;44.536;18.664;2023-03-14T00:54:17;10.30;66.70
52765;DHT22;38650;44.536;18.664;2023-03-14T00:56:43;10.30;66.20
52765;DHT22;38650;44.536;18.664;2023-03-14T00:59:08;10.30;66.30
52765;DHT22;38650;44.536;18.664;2023-03-14T01:01:34;10.30;66.30
52765;DHT22;38650;44.536;18.664;2023-03-14T01:04:00;10.10;66.70
52765;DHT22;38650;44.536;18.664;2023-03-14T01:06:27;10.20;66.90
52765;DHT22;38650;44.536;18.664;2023-03-14T01:08:55;10.20;67.10
52765;DHT22;38650;44.536;18.664;2023-03-14T01:11:25;10.20;66.80
52765;DHT22;38650;44.536;18.664;2023-03-14T01:13:51;10.20;67.00
52765;DHT22;38650;44.536;18.664;2023-03-14T01:16:19;10.20;67.10
52765;DHT22;38650;44.536;18.664;2023-03-14T01:18:45;10.20;67.00
52765;DHT22;38650;44.536;18.664;2023-03-14T01:23:39;10.20;67.20
52765;DHT22;38650;44.536;18.664;2023-03-14T01:26:04;10.10;67.40
52765;DHT22;38650;44.536;18.664;2023-03-14T01:28:33;10.10;67.30
52765;DHT22;38650;44.536;18.664;2023-03-14T01:31:06;10.10;67.40
52765;DHT22;38650;44.536;18.664;2023-03-14T01:33:32;10.10;67.50
52765;DHT22;38650;44.536;18.664;2023-03-14T01:35:58;10.00;67.20
52765;DHT22;38650;44.536;18.664;2023-03-14T01:38:24;10.00;67.90
52765;DHT22;38650;44.536;18.664;2023-03-14T01:40:50;10.00;67.70
52765;DHT22;38650;44.536;18.664;2023-03-14T01:43:18;10.00;67.10
52765;DHT22;38650;44.536;18.664;2023-03-14T01:48:32;10.10;67.60
52765;DHT22;38650;44.536;18.664;2023-03-14T01:51:00;10.10;67.80
52765;DHT22;38650;44.536;18.664;2023-03-14T01:53:28;10.10;67.40
52765;DHT22;38650;44.536;18.664;2023-03-14T01:55:55;10.10;67.00
52765;DHT22;38650;44.536;18.664;2023-03-14T01:58:26;10.10;66.90
52765;DHT22;38650;44.536;18.664;2023-03-14T02:00:54;10.00;66.90
52765;DHT22;38650;44.536;18.664;2023-03-14T02:03:22;9.90;67.20
52765;DHT22;38650;44.536;18.664;2023-03-14T02:05:49;9.90;67.80
52765;DHT22;38650;44.536;18.664;2023-03-14T02:08:18;9.90;67.60
52765;DHT22;38650;44.536;18.664;2023-03-14T02:10:47;9.90;67.90
52765;DHT22;38650;44.536;18.664;2023-03-14T02:13:15;9.80;67.70
52765;DHT22;38650;44.536;18.664;2023-03-14T02:15:42;9.80;68.20
52765;DHT22;38650;44.536;18.664;2023-03-14T02:18:08;9.80;68.50
52765;DHT22;38650;44.536;18.664;2023-03-14T02:23:20;9.70;68.60
52765;DHT22;38650;44.536;18.664;2023-03-14T02:26:02;9.60;68.60
52765;DHT22;38650;44.536;18.664;2023-03-14T02:28:29;9.60;69.10
52765;DHT22;38650;44.536;18.664;2023-03-14T02:30:55;9.50;69.70
52765;DHT22;38650;44.536;18.664;2023-03-14T02:33:21;9.50;69.40
52765;DHT22;38650;44.536;18.664;2023-03-14T02:36:00;9.50;68.90
52765;DHT22;38650;44.536;18.664;2023-03-14T02:38:33;9.60;69.10
52765;DHT22;38650;44.536;18.664;2023-03-14T02:41:01;9.60;69.00
52765;DHT22;38650;44.536;18.664;2023-03-14T02:43:27;9.60;68.60
52765;DHT22;38650;44.536;18.664;2023-03-14T02:45:53;9.70;68.70
52765;DHT22;38650;44.536;18.664;2023-03-14T02:48:22;9.70;69.10
52765;DHT22;38650;44.536;18.664;2023-03-14T02:50:53;9.70;68.70
52765;DHT22;38650;44.536;18.664;2023-03-14T02:53:24;9.70;69.20
52765;DHT22;38650;44.536;18.664;2023-03-14T02:55:50;9.70;68.60
52765;DHT22;38650;44.536;18.664;2023-03-14T02:58:17;9.60;68.60
52765;DHT22;38650;44.536;18.664;2023-03-14T03:00:43;9.60;67.80
52765;DHT22;38650;44.536;18.664;2023-03-14T03:03:09;9.70;67.90
52765;DHT22;38650;44.536;18.664;2023-03-14T03:05:34;9.70;68.00
52765;DHT22;38650;44.536;18.664;2023-03-14T03:08:00;9.70;68.40
52765;DHT22;38650;44.536;18.664;2023-03-14T03:10:27;9.80;68.60
52765;DHT22;38650;44.536;18.664;2023-03-14T03:12:53;9.80;68.80
52765;DHT22;38650;44.536;18.664;2023-03-14T03:15:19;9.80;68.90
52765;DHT22;38650;44.536;18.664;2023-03-14T03:17:45;9.90;69.70
52765;DHT22;38650;44.536;18.664;2023-03-14T03:20:10;9.80;69.80
52765;DHT22;38650;44.536;18.664;2023-03-14T03:22:38;9.80;68.90
52765;DHT22;38650;44.536;18.664;2023-03-14T03:25:05;9.90;69.40
52765;DHT22;38650;44.536;18.664;2023-03-14T03:27:32;9.90;69.60
52765;DHT22;38650;44.536;18.664;2023-03-14T03:29:58;9.90;69.50
52765;DHT22;38650;44.536;18.664;2023-03-14T03:32:23;9.90;68.80
52765;DHT22;38650;44.536;18.664;2023-03-14T03:34:49;9.90;69.30
52765;DHT22;38650;44.536;18.664;2023-03-14T03:37:15;9.90;68.70
52765;DHT22;38650;44.536;18.664;2023-03-14T03:39:41;10.00;68.70
52765;DHT22;38650;44.536;18.664;2023-03-14T03:42:07;10.00;68.50
52765;DHT22;38650;44.536;18.664;2023-03-14T03:44:32;10.00;68.70
52765;DHT22;38650;44.536;18.664;2023-03-14T03:46:58;10.00;68.70
52765;DHT22;38650;44.536;18.664;2023-03-14T03:49:27;10.00;68.30
52765;DHT22;38650;44.536;18.664;2023-03-14T03:51:53;10.00;68.30
52765;DHT22;38650;44.536;18.664;2023-03-14T03:54:19;10.00;68.60
52765;DHT22;38650;44.536;18.664;2023-03-14T03:56:44;9.90;68.30
52765;DHT22;38650;44.536;18.664;2023-03-14T03:59:10;9.90;69.20
52765;DHT22;38650;44.536;18.664;2023-03-14T04:01:36;9.90;68.30
52765;DHT22;38650;44.536;18.664;2023-03-14T04:04:01;9.90;68.20
52765;DHT22;38650;44.536;18.664;2023-03-14T04:06:27;10.00;68.40
52765;DHT22;38650;44.536;18.664;2023-03-14T04:08:54;9.90;67.90
52765;DHT22;38650;44.536;18.664;2023-03-14T04:11:19;9.80;68.20
52765;DHT22;38650;44.536;18.664;2023-03-14T04:13:45;9.80;68.30
52765;DHT22;38650;44.536;18.664;2023-03-14T04:16:22;9.80;69.10
52765;DHT22;38650;44.536;18.664;2023-03-14T04:18:48;9.80;68.80
52765;DHT22;38650;44.536;18.664;2023-03-14T04:21:15;9.80;69.70
52765;DHT22;38650;44.536;18.664;2023-03-14T04:23:40;9.70;68.90
52765;DHT22;38650;44.536;18.664;2023-03-14T04:26:06;9.70;68.50
52765;DHT22;38650;44.536;18.664;2023-03-14T04:28:32;9.60;68.70
52765;DHT22;38650;44.536;18.664;2023-03-14T04:30:58;9.70;69.20
52765;DHT22;38650;44.536;18.664;2023-03-14T04:33:23;9.70;69.10
52765;DHT22;38650;44.536;18.664;2023-03-14T04:35:53;9.70;69.50
52765;DHT22;38650;44.536;18.664;2023-03-14T04:38:19;9.70;69.60
52765;DHT22;38650;44.536;18.664;2023-03-14T04:40:45;9.70;69.30
52765;DHT22;38650;44.536;18.664;2023-03-14T04:43:11;9.70;69.40
52765;DHT22;38650;44.536;18.664;2023-03-14T04:45:41;9.70;69.40
52765;DHT22;38650;44.536;18.664;2023-03-14T04:48:06;9.70;69.70
52765;DHT22;38650;44.536;18.664;2023-03-14T04:50:32;9.60;69.70
52765;DHT22;38650;44.536;18.664;2023-03-14T04:52:58;9.60;69.50
52765;DHT22;38650;44.536;18.664;2023-03-14T04:55:24;9.60;70.00
52765;DHT22;38650;44.536;18.664;2023-03-14T04:57:49;9.60;70.10
52765;DHT22;38650;44.536;18.664;2023-03-14T05:00:15;9.40;70.50
52765;DHT22;38650;44.536;18.664;2023-03-14T05:02:44;9.40;70.70
52765;DHT22;38650;44.536;18.664;2023-03-14T05:05:10;9.30;70.90
52765;DHT22;38650;44.536;18.664;2023-03-14T05:07:36;9.30;71.50
52765;DHT22;38650;44.536;18.664;2023-03-14T05:10:02;9.30;70.80
52765;DHT22;38650;44.536;18.664;2023-03-14T05:12:28;9.40;70.40
52765;DHT22;38650;44.536;18.664;2023-03-14T05:14:53;9.40;71.00
52765;DHT22;38650;44.536;18.664;2023-03-14T05:17:19;9.40;71.10
52765;DHT22;38650;44.536;18.664;2023-03-14T05:19:45;9.40;71.20
52765;DHT22;38650;44.536;18.664;2023-03-14T05:22:11;9.40;71.10
52765;DHT22;38650;44.536;18.664;2023-03-14T05:24:37;9.50;71.70
52765;DHT22;38650;44.536;18.664;2023-03-14T05:27:03;9.60;71.40
52765;DHT22;38650;44.536;18.664;2023-03-14T05:29:29;9.60;70.90
52765;DHT22;38650;44.536;18.664;2023-03-14T05:31:55;9.50;71.50
52765;DHT22;38650;44.536;18.664;2023-03-14T05:34:21;9.60;71.80
52765;DHT22;38650;44.536;18.664;2023-03-14T05:36:46;9.60;71.70
52765;DHT22;38650;44.536;18.664;2023-03-14T05:39:12;9.60;71.60
52765;DHT22;38650;44.536;18.664;2023-03-14T05:41:38;9.70;72.20
52765;DHT22;38650;44.536;18.664;2023-03-14T05:44:03;9.70;72.20
52765;DHT22;38650;44.536;18.664;2023-03-14T05:46:29;9.70;72.00
52765;DHT22;38650;44.536;18.664;2023-03-14T05:48:59;9.80;72.00
52765;DHT22;38650;44.536;18.664;2023-03-14T05:51:25;9.80;72.30
52765;DHT22;38650;44.536;18.664;2023-03-14T05:53:51;9.90;72.20
52765;DHT22;38650;44.536;18.664;2023-03-14T05:56:17;9.90;71.80
52765;DHT22;38650;44.536;18.664;2023-03-14T05:58:42;10.00;71.90
52765;DHT22;38650;44.536;18.664;2023-03-14T06:01:08;10.00;71.10
52765;DHT22;38650;44.536;18.664;2023-03-14T06:03:34;10.10;71.10
52765;DHT22;38650;44.536;18.664;2023-03-14T06:06:00;10.20;70.60
52765;DHT22;38650;44.536;18.664;2023-03-14T06:08:26;10.30;70.60
52765;DHT22;38650;44.536;18.664;2023-03-14T06:10:52;10.40;70.80
52765;DHT22;38650;44.536;18.664;2023-03-14T06:13:18;10.50;70.80
52765;DHT22;38650;44.536;18.664;2023-03-14T06:15:44;10.60;72.00
52765;DHT22;38650;44.536;18.664;2023-03-14T06:18:09;10.50;71.60
52765;DHT22;38650;44.536;18.664;2023-03-14T06:20:36;10.60;71.10
52765;DHT22;38650;44.536;18.664;2023-03-14T06:23:08;10.60;70.70
52765;DHT22;38650;44.536;18.664;2023-03-14T06:25:34;10.70;71.50
52765;DHT22;38650;44.536;18.664;2023-03-14T06:28:00;10.70;70.90
52765;DHT22;38650;44.536;18.664;2023-03-14T06:30:26;10.90;70.70
52765;DHT22;38650;44.536;18.664;2023-03-14T06:32:52;10.90;70.50
52765;DHT22;38650;44.536;18.664;2023-03-14T06:35:18;11.00;71.00
52765;DHT22;38650;44.536;18.664;2023-03-14T06:37:44;11.10;69.90
52765;DHT22;38650;44.536;18.664;2023-03-14T06:40:12;11.10;70.10
52765;DHT22;38650;44.536;18.664;2023-03-14T06:42:46;11.20;70.50
52765;DHT22;38650;44.536;18.664;2023-03-14T06:45:12;11.30;70.80
52765;DHT22;38650;44.536;18.664;2023-03-14T06:47:38;11.50;69.90
52765;DHT22;38650;44.536;18.664;2023-03-14T06:50:07;11.60;70.40
52765;DHT22;38650;44.536;18.664;2023-03-14T06:52:34;11.80;69.60
52765;DHT22;38650;44.536;18.664;2023-03-14T06:55:00;11.90;69.10
52765;DHT22;38650;44.536;18.664;2023-03-14T06:57:26;12.10;68.00
52765;DHT22;38650;44.536;18.664;2023-03-14T06:59:51;12.20;67.10
52765;DHT22;38650;44.536;18.664;2023-03-14T07:02:17;12.30;66.80
52765;DHT22;38650;44.536;18.664;2023-03-14T07:04:43;12.40;66.10
52765;DHT22;38650;44.536;18.664;2023-03-14T07:07:09;12.50;67.30
52765;DHT22;38650;44.536;18.664;2023-03-14T07:09:35;12.60;66.90
52765;DHT22;38650;44.536;18.664;2023-03-14T07:12:01;12.80;67.80
52765;DHT22;38650;44.536;18.664;2023-03-14T07:14:28;12.90;66.80
52765;DHT22;38650;44.536;18.664;2023-03-14T07:16:54;13.20;65.60
52765;DHT22;38650;44.536;18.664;2023-03-14T07:19:20;13.30;64.40
52765;DHT22;38650;44.536;18.664;2023-03-14T07:21:46;13.40;64.00
52765;DHT22;38650;44.536;18.664;2023-03-14T07:24:11;13.60;65.50
52765;DHT22;38650;44.536;18.664;2023-03-14T07:26:38;14.00;64.00
52765;DHT22;38650;44.536;18.664;2023-03-14T07:29:04;14.70;63.20
52765;DHT22;38650;44.536;18.664;2023-03-14T07:31:30;15.30;62.80
52765;DHT22;38650;44.536;18.664;2023-03-14T07:33:55;15.70;61.40
52765;DHT22;38650;44.536;18.664;2023-03-14T07:36:21;16.00;60.20
52765;DHT22;38650;44.536;18.664;2023-03-14T07:38:47;16.40;58.80
52765;DHT22;38650;44.536;18.664;2023-03-14T07:41:13;17.00;57.00
52765;DHT22;38650;44.536;18.664;2023-03-14T07:43:39;17.40;56.30
52765;DHT22;38650;44.536;18.664;2023-03-14T07:46:05;18.10;55.50
52765;DHT22;38650;44.536;18.664;2023-03-14T07:48:31;18.30;55.00
52765;DHT22;38650;44.536;18.664;2023-03-14T07:50:58;18.00;53.00
52765;DHT22;38650;44.536;18.664;2023-03-14T07:53:24;17.70;52.90
52765;DHT22;38650;44.536;18.664;2023-03-14T07:55:51;17.70;53.80
52765;DHT22;38650;44.536;18.664;2023-03-14T07:58:18;17.80;54.10
52765;DHT22;38650;44.536;18.664;2023-03-14T08:00:44;17.90;49.80
52765;DHT22;38650;44.536;18.664;2023-03-14T08:03:12;17.80;50.70
52765;DHT22;38650;44.536;18.664;2023-03-14T08:05:40;17.70;48.70
52765;DHT22;38650;44.536;18.664;2023-03-14T08:08:07;17.60;50.00
52765;DHT22;38650;44.536;18.664;2023-03-14T08:10:33;17.50;47.20
52765;DHT22;38650;44.536;18.664;2023-03-14T08:13:00;17.40;45.50
52765;DHT22;38650;44.536;18.664;2023-03-14T08:15:27;17.50;45.70
52765;DHT22;38650;44.536;18.664;2023-03-14T08:17:53;17.80;43.80
52765;DHT22;38650;44.536;18.664;2023-03-14T08:20:22;18.20;44.50
52765;DHT22;38650;44.536;18.664;2023-03-14T08:22:48;18.60;44.60
52765;DHT22;38650;44.536;18.664;2023-03-14T08:25:14;19.50;43.00
52765;DHT22;38650;44.536;18.664;2023-03-14T08:27:41;21.10;42.50
52765;DHT22;38650;44.536;18.664;2023-03-14T08:30:12;22.60;40.50
52765;DHT22;38650;44.536;18.664;2023-03-14T08:32:38;23.50;38.90
52765;DHT22;38650;44.536;18.664;2023-03-14T08:35:05;25.10;38.40
52765;DHT22;38650;44.536;18.664;2023-03-14T08:37:32;25.80;35.90
52765;DHT22;38650;44.536;18.664;2023-03-14T08:39:58;26.00;36.50
52765;DHT22;38650;44.536;18.664;2023-03-14T08:42:29;25.90;33.80
52765;DHT22;38650;44.536;18.664;2023-03-14T08:44:55;25.70;34.90
52765;DHT22;38650;44.536;18.664;2023-03-14T08:47:21;25.90;34.70
52765;DHT22;38650;44.536;18.664;2023-03-14T08:49:47;26.20;30.20
52765;DHT22;38650;44.536;18.664;2023-03-14T08:52:13;25.80;31.90
52765;DHT22;38650;44.536;18.664;2023-03-14T08:54:38;25.50;32.00
52765;DHT22;38650;44.536;18.664;2023-03-14T08:57:04;25.50;31.00
52765;DHT22;38650;44.536;18.664;2023-03-14T08:59:30;25.20;31.70
52765;DHT22;38650;44.536;18.664;2023-03-14T09:01:55;25.20;31.50
52765;DHT22;38650;44.536;18.664;2023-03-14T09:04:21;25.30;31.30
52765;DHT22;38650;44.536;18.664;2023-03-14T09:06:47;25.20;30.80
52765;DHT22;38650;44.536;18.664;2023-03-14T09:09:13;24.80;31.40
52765;DHT22;38650;44.536;18.664;2023-03-14T09:11:39;24.40;33.00
52765;DHT22;38650;44.536;18.664;2023-03-14T09:14:05;23.80;30.60
52765;DHT22;38650;44.536;18.664;2023-03-14T09:16:33;23.50;32.20
52765;DHT22;38650;44.536;18.664;2023-03-14T09:18:59;23.30;31.80
52765;DHT22;38650;44.536;18.664;2023-03-14T09:21:26;22.90;31.90
52765;DHT22;38650;44.536;18.664;2023-03-14T09:23:52;22.70;32.10
52765;DHT22;38650;44.536;18.664;2023-03-14T09:26:18;22.40;31.50
52765;DHT22;38650;44.536;18.664;2023-03-14T09:28:44;22.30;31.30
52765;DHT22;38650;44.536;18.664;2023-03-14T09:31:11;22.30;31.30
52765;DHT22;38650;44.536;18.664;2023-03-14T09:33:38;22.30;31.60
52765;DHT22;38650;44.536;18.664;2023-03-14T09:36:04;22.40;31.70
52765;DHT22;38650;44.536;18.664;2023-03-14T09:38:30;22.30;31.90
52765;DHT22;38650;44.536;18.664;2023-03-14T09:40:59;22.50;31.50
52765;DHT22;38650;44.536;18.664;2023-03-14T09:43:28;22.60;30.00
52765;DHT22;38650;44.536;18.664;2023-03-14T09:45:55;22.60;30.50
52765;DHT22;38650;44.536;18.664;2023-03-14T09:48:27;22.60;30.00
52765;DHT22;38650;44.536;18.664;2023-03-14T09:50:55;22.80;31.10
52765;DHT22;38650;44.536;18.664;2023-03-14T09:53:28;22.50;30.00
52765;DHT22;38650;44.536;18.664;2023-03-14T09:55:59;22.60;31.00
52765;DHT22;38650;44.536;18.664;2023-03-14T09:58:25;23.10;30.70
52765;DHT22;38650;44.536;18.664;2023-03-14T10:00:53;23.50;29.60
52765;DHT22;38650;44.536;18.664;2023-03-14T10:03:39;23.60;29.60
52765;DHT22;38650;44.536;18.664;2023-03-14T10:06:13;23.50;29.50
52765;DHT22;38650;44.536;18.664;2023-03-14T10:08:41;23.70;30.40
52765;DHT22;38650;44.536;18.664;2023-03-14T10:11:09;24.30;31.70
52765;DHT22;38650;44.536;18.664;2023-03-14T10:13:35;25.00;30.20
52765;DHT22;38650;44.536;18.664;2023-03-14T10:16:14;25.30;29.70
52765;DHT22;38650;44.536;18.664;2023-03-14T10:18:47;25.20;28.90
52765;DHT22;38650;44.536;18.664;2023-03-14T10:21:30;25.40;30.70
52765;DHT22;38650;44.536;18.664;2023-03-14T10:24:26;24.70;29.40
52765;DHT22;38650;44.536;18.664;2023-03-14T10:26:55;24.30;29.40
52765;DHT22;38650;44.536;18.664;2023-03-14T10:29:21;24.20;29.50
52765;DHT22;38650;44.536;18.664;2023-03-14T10:32:10;24.50;29.10
52765;DHT22;38650;44.536;18.664;2023-03-14T10:34:43;24.10;28.50
52765;DHT22;38650;44.536;18.664;2023-03-14T10:37:22;24.10;28.80
52765;DHT22;38650;44.536;18.664;2023-03-14T10:39:57;24.30;30.00
52765;DHT22;38650;44.536;18.664;2023-03-14T10:42:33;24.60;29.20
52765;DHT22;38650;44.536;18.664;2023-03-14T10:45:05;25.10;28.70
52765;DHT22;38650;44.536;18.664;2023-03-14T10:47:33;24.60;28.60
52765;DHT22;38650;44.536;18.664;2023-03-14T10:50:30;24.60;29.20
52765;DHT22;38650;44.536;18.664;2023-03-14T10:53:25;25.10;28.90
52765;DHT22;38650;44.536;18.664;2023-03-14T10:56:05;25.70;28.10
52765;DHT22;38650;44.536;18.664;2023-03-14T10:58:44;25.60;28.30
52765;DHT22;38650;44.536;18.664;2023-03-14T11:06:56;24.60;28.40
52765;DHT22;38650;44.536;18.664;2023-03-14T11:14:52;24.70;29.00
52765;DHT22;38650;44.536;18.664;2023-03-14T11:17:30;24.70;30.10
52765;DHT22;38650;44.536;18.664;2023-03-14T11:27:45;25.40;28.90
52765;DHT22;38650;44.536;18.664;2023-03-14T11:33:26;26.20;28.80
52765;DHT22;38650;44.536;18.664;2023-03-14T11:38:33;26.30;27.80
52765;DHT22;38650;44.536;18.664;2023-03-14T11:41:00;25.80;26.70
52765;DHT22;38650;44.536;18.664;2023-03-14T11:43:35;25.60;27.30
52765;DHT22;38650;44.536;18.664;2023-03-14T11:46:18;25.40;26.70
52765;DHT22;38650;44.536;18.664;2023-03-14T11:51:47;25.40;26.80
52765;DHT22;38650;44.536;18.664;2023-03-14T11:57:17;25.10;27.20
52765;DHT22;38650;44.536;18.664;2023-03-14T12:02:56;26.10;27.10
52765;DHT22;38650;44.536;18.664;2023-03-14T12:08:58;26.20;27.30
52765;DHT22;38650;44.536;18.664;2023-03-14T12:11:40;26.40;27.70
52765;DHT22;38650;44.536;18.664;2023-03-14T12:16:57;26.50;26.60
52765;DHT22;38650;44.536;18.664;2023-03-14T12:24:24;27.30;26.70
52765;DHT22;38650;44.536;18.664;2023-03-14T12:26:56;27.80;26.70
52765;DHT22;38650;44.536;18.664;2023-03-14T12:29:22;27.90;28.60
52765;DHT22;38650;44.536;18.664;2023-03-14T12:34:40;28.10;28.40
52765;DHT22;38650;44.536;18.664;2023-03-14T12:37:15;28.50;26.10
52765;DHT22;38650;44.536;18.664;2023-03-14T12:48:05;28.60;24.90
52765;DHT22;38650;44.536;18.664;2023-03-14T12:50:43;27.60;26.20
52765;DHT22;38650;44.536;18.664;2023-03-14T12:56:26;27.00;26.00
52765;DHT22;38650;44.536;18.664;2023-03-14T13:01:48;27.70;26.20
52765;DHT22;38650;44.536;18.664;2023-03-14T13:04:18;27.90;25.80
52765;DHT22;38650;44.536;18.664;2023-03-14T13:07:33;27.60;25.20
52765;DHT22;38650;44.536;18.664;2023-03-14T13:15:31;28.30;25.10
52765;DHT22;38650;44.536;18.664;2023-03-14T13:18:16;28.80;25.60
52765;DHT22;38650;44.536;18.664;2023-03-14T13:20:48;29.30;25.20
52765;DHT22;38650;44.536;18.664;2023-03-14T13:23:21;28.90;25.40
52765;DHT22;38650;44.536;18.664;2023-03-14T13:25:48;29.10;24.70
52765;DHT22;38650;44.536;18.664;2023-03-14T13:28:14;29.40;24.40
52765;DHT22;38650;44.536;18.664;2023-03-14T13:30:43;29.70;24.20
52765;DHT22;38650;44.536;18.664;2023-03-14T13:33:18;29.70;25.00
52765;DHT22;38650;44.536;18.664;2023-03-14T13:36:05;29.60;24.60
52765;DHT22;38650;44.536;18.664;2023-03-14T13:38:36;29.50;24.40
52765;DHT22;38650;44.536;18.664;2023-03-14T13:41:07;29.80;24.20
52765;DHT22;38650;44.536;18.664;2023-03-14T13:43:40;29.90;25.10
52765;DHT22;38650;44.536;18.664;2023-03-14T13:46:13;30.00;24.40
52765;DHT22;38650;44.536;18.664;2023-03-14T13:48:49;29.80;25.50
52765;DHT22;38650;44.536;18.664;2023-03-14T13:51:19;29.80;23.90
52765;DHT22;38650;44.536;18.664;2023-03-14T13:53:50;29.60;24.60
52765;DHT22;38650;44.536;18.664;2023-03-14T13:56:22;29.40;23.90
52765;DHT22;38650;44.536;18.664;2023-03-14T13:58:48;28.70;24.50
52765;DHT22;38650;44.536;18.664;2023-03-14T14:03:45;29.00;24.50
52765;DHT22;38650;44.536;18.664;2023-03-14T14:08:52;29.00;24.50
52765;DHT22;38650;44.536;18.664;2023-03-14T14:14:04;29.10;25.30
52765;DHT22;38650;44.536;18.664;2023-03-14T14:16:31;29.30;24.30
52765;DHT22;38650;44.536;18.664;2023-03-14T14:18:59;29.30;25.00
52765;DHT22;38650;44.536;18.664;2023-03-14T14:21:26;29.40;24.20
52765;DHT22;38650;44.536;18.664;2023-03-14T14:23:52;29.40;25.50
52765;DHT22;38650;44.536;18.664;2023-03-14T14:26:19;29.40;24.40
52765;DHT22;38650;44.536;18.664;2023-03-14T14:28:46;29.10;24.70
52765;DHT22;38650;44.536;18.664;2023-03-14T14:34:01;28.90;24.80
52765;DHT22;38650;44.536;18.664;2023-03-14T14:36:36;28.80;24.20
52765;DHT22;38650;44.536;18.664;2023-03-14T14:39:09;28.50;24.40
52765;DHT22;38650;44.536;18.664;2023-03-14T14:41:39;28.40;24.30
52765;DHT22;38650;44.536;18.664;2023-03-14T14:44:05;28.20;24.40
52765;DHT22;38650;44.536;18.664;2023-03-14T14:46:34;27.80;24.10
52765;DHT22;38650;44.536;18.664;2023-03-14T14:49:14;27.60;24.30
52765;DHT22;38650;44.536;18.664;2023-03-14T14:51:45;27.30;24.70
52765;DHT22;38650;44.536;18.664;2023-03-14T14:54:15;26.90;24.90
52765;DHT22;38650;44.536;18.664;2023-03-14T14:56:46;26.60;25.20
52765;DHT22;38650;44.536;18.664;2023-03-14T14:59:22;26.40;24.60
52765;DHT22;38650;44.536;18.664;2023-03-14T15:01:48;26.40;25.20
52765;DHT22;38650;44.536;18.664;2023-03-14T15:04:16;26.40;24.70
52765;DHT22;38650;44.536;18.664;2023-03-14T15:06:44;26.60;24.90
52765;DHT22;38650;44.536;18.664;2023-03-14T15:09:11;26.50;25.30
52765;DHT22;38650;44.536;18.664;2023-03-14T15:11:37;26.80;24.50
52765;DHT22;38650;44.536;18.664;2023-03-14T15:14:03;26.90;24.90
52765;DHT22;38650;44.536;18.664;2023-03-14T15:16:30;26.90;25.00
52765;DHT22;38650;44.536;18.664;2023-03-14T15:18:59;26.90;25.00
52765;DHT22;38650;44.536;18.664;2023-03-14T15:21:26;26.90;25.00
52765;DHT22;38650;44.536;18.664;2023-03-14T15:23:52;26.90;25.30
52765;DHT22;38650;44.536;18.664;2023-03-14T15:26:24;26.60;25.20
52765;DHT22;38650;44.536;18.664;2023-03-14T15:28:50;26.40;25.00
52765;DHT22;38650;44.536;18.664;2023-03-14T15:31:17;26.10;24.80
52765;DHT22;38650;44.536;18.664;2023-03-14T15:33:44;25.80;25.10
52765;DHT22;38650;44.536;18.664;2023-03-14T15:38:49;25.20;25.90
52765;DHT22;38650;44.536;18.664;2023-03-14T15:41:15;24.90;25.60
52765;DHT22;38650;44.536;18.664;2023-03-14T15:43:41;24.50;25.50
52765;DHT22;38650;44.536;18.664;2023-03-14T15:46:11;24.70;25.40
52765;DHT22;38650;44.536;18.664;2023-03-14T15:48:37;25.30;25.50
52765;DHT22;38650;44.536;18.664;2023-03-14T15:51:03;24.90;25.30
52765;DHT22;38650;44.536;18.664;2023-03-14T15:53:29;24.40;25.60
52765;DHT22;38650;44.536;18.664;2023-03-14T15:55:55;24.10;25.60
52765;DHT22;38650;44.536;18.664;2023-03-14T15:58:20;23.90;25.80
52765;DHT22;38650;44.536;18.664;2023-03-14T16:00:46;23.90;25.60
52765;DHT22;38650;44.536;18.664;2023-03-14T16:03:12;24.20;25.70
52765;DHT22;38650;44.536;18.664;2023-03-14T16:05:39;24.40;25.90
52765;DHT22;38650;44.536;18.664;2023-03-14T16:08:05;23.90;25.20
52765;DHT22;38650;44.536;18.664;2023-03-14T16:10:30;23.90;25.80
52765;DHT22;38650;44.536;18.664;2023-03-14T16:12:57;24.10;25.70
52765;DHT22;38650;44.536;18.664;2023-03-14T16:15:23;24.10;25.70
52765;DHT22;38650;44.536;18.664;2023-03-14T16:17:52;24.10;26.00
52765;DHT22;38650;44.536;18.664;2023-03-14T16:20:18;24.10;25.90
52765;DHT22;38650;44.536;18.664;2023-03-14T16:22:45;24.00;26.40
52765;DHT22;38650;44.536;18.664;2023-03-14T16:25:11;24.00;26.40
52765;DHT22;38650;44.536;18.664;2023-03-14T16:27:37;23.90;27.70
52765;DHT22;38650;44.536;18.664;2023-03-14T16:30:04;23.50;29.90
52765;DHT22;38650;44.536;18.664;2023-03-14T16:32:29;23.00;29.90
52765;DHT22;38650;44.536;18.664;2023-03-14T16:34:55;22.40;32.20
52765;DHT22;38650;44.536;18.664;2023-03-14T16:37:23;21.80;33.70
52765;DHT22;38650;44.536;18.664;2023-03-14T16:39:49;21.20;34.00
52765;DHT22;38650;44.536;18.664;2023-03-14T16:42:15;20.70;34.40
52765;DHT22;38650;44.536;18.664;2023-03-14T16:44:41;20.10;35.40
52765;DHT22;38650;44.536;18.664;2023-03-14T16:47:07;19.90;34.80
52765;DHT22;38650;44.536;18.664;2023-03-14T16:49:33;19.90;33.30
52765;DHT22;38650;44.536;18.664;2023-03-14T16:51:59;20.30;31.90
52765;DHT22;38650;44.536;18.664;2023-03-14T16:54:25;20.80;30.30